Time;durP1;ratioP1;P1;durP2;ratioP2;P2;SDS_P1;SDS_P2;PMS_P1;PMS_P2;Temp;Humidity;BMP_temperature;BMP_pressure;BME280_temperature;BME280_humidity;BME280_pressure;Samples;Min_cycle;Max_cycle;Signal;HPM_P1;HPM_P2
2022/08/02 00:01:24;;;;;;;5.30;2.00;;;;;;;;;;5280010;28;20103;-82
2022/08/02 00:03:55;;;;;;;5.90;2.10;;;;;;;;;;5274710;28;21210;-82
2022/08/02 00:06:26;;;;;;;4.47;1.83;;;;;;;;;;5288863;28;20267;-82
2022/08/02 00:08:57;;;;;;;7.70;2.53;;;;;;;;;;5287365;28;20121;-82
2022/08/02 00:11:29;;;;;;;4.83;1.80;;;;;;;;;;5284691;28;20026;-82
2022/08/02 00:14:00;;;;;;;4.33;1.87;;;;;;;;;;5291270;28;20744;-82
2022/08/02 00:16:32;;;;;;;5.57;2.00;;;;;;;;;;5283189;28;20033;-83
2022/08/02 00:19:03;;;;;;;4.07;1.83;;;;;;;;;;5287126;28;20095;-82
2022/08/02 00:21:34;;;;;;;4.43;2.13;;;;;;;;;;5289298;28;20028;-82
2022/08/02 00:24:06;;;;;;;8.10;2.33;;;;;;;;;;5256028;28;20288;-82
2022/08/02 00:26:37;;;;;;;5.70;2.15;;;;;;;;;;5276117;28;20276;-82
2022/08/02 00:29:08;;;;;;;6.28;1.98;;;;;;;;;;5278270;28;20079;-82
2022/08/02 00:31:39;;;;;;;4.57;1.70;;;;;;;;;;5283948;28;20521;-82
2022/08/02 00:34:10;;;;;;;4.53;1.80;;;;;;;;;;5289154;28;20435;-82
2022/08/02 00:36:42;;;;;;;6.60;2.10;;;;;;;;;;5268800;28;20484;-82
2022/08/02 00:39:13;;;;;;;4.82;1.45;;;;;;;;;;5284501;28;20287;-82
2022/08/02 00:41:45;;;;;;;4.87;2.00;;;;;;;;;;5280218;28;20119;-82
2022/08/02 00:44:18;;;;;;;6.45;1.83;;;;;;;;;;5283368;28;20280;-81
2022/08/02 00:46:49;;;;;;;1.83;1.25;;;;;;;;;;5261019;28;20059;-82
2022/08/02 00:49:20;;;;;;;4.60;1.73;;;;;;;;;;5291331;28;20025;-81
2022/08/02 00:51:52;;;;;;;4.80;2.03;;;;;;;;;;5290039;28;20287;-81
2022/08/02 00:54:23;;;;;;;6.65;2.00;;;;;;;;;;5284207;28;20040;-82
2022/08/02 00:56:54;;;;;;;3.92;1.40;;;;;;;;;;5283699;28;20162;-83
2022/08/02 00:59:25;;;;;;;4.97;1.80;;;;;;;;;;5287268;28;20039;-81
2022/08/02 01:01:56;;;;;;;4.18;1.40;;;;;;;;;;5273876;28;20029;-80
2022/08/02 01:04:28;;;;;;;2.97;1.35;;;;;;;;;;5274523;28;20029;-80
2022/08/02 01:07:00;;;;;;;4.25;1.40;;;;;;;;;;5284196;28;20033;-81
2022/08/02 01:09:31;;;;;;;5.88;1.27;;;;;;;;;;5304159;28;20087;-80
2022/08/02 01:12:02;;;;;;;5.67;1.63;;;;;;;;;;5294227;28;20025;-82
2022/08/02 01:14:33;;;;;;;2.85;1.52;;;;;;;;;;5284666;28;20090;-81
2022/08/02 01:17:07;;;;;;;5.50;1.60;;;;;;;;;;5282745;28;20033;-81
2022/08/02 01:19:56;;;;;;;2.90;1.50;;;;;;;;;;5289806;28;20049;-82
2022/08/02 01:22:37;;;;;;;2.28;1.30;;;;;;;;;;5300834;28;20024;-82
2022/08/02 01:25:08;;;;;;;5.15;1.65;;;;;;;;;;5293707;28;20036;-81
2022/08/02 01:27:53;;;;;;;4.13;1.73;;;;;;;;;;5277916;28;20041;-81
2022/08/02 01:30:24;;;;;;;5.28;1.50;;;;;;;;;;5283331;28;20053;-81
2022/08/02 01:32:58;;;;;;;5.93;1.90;;;;;;;;;;5282742;28;20556;-81
2022/08/02 01:35:36;;;;;;;4.68;1.95;;;;;;;;;;5262212;28;20430;-81
2022/08/02 01:38:15;;;;;;;6.60;1.58;;;;;;;;;;5265176;28;20488;-82
2022/08/02 01:40:48;;;;;;;6.45;1.40;;;;;;;;;;5280274;28;20477;-80
2022/08/02 01:43:20;;;;;;;7.95;1.83;;;;;;;;;;5288857;28;20585;-81
2022/08/02 01:45:51;;;;;;;5.32;2.03;;;;;;;;;;5284252;28;20036;-80
2022/08/02 01:48:24;;;;;;;7.28;1.88;;;;;;;;;;5265411;28;20477;-81
2022/08/02 01:50:56;;;;;;;6.05;2.35;;;;;;;;;;5286526;28;20074;-80
2022/08/02 01:53:28;;;;;;;6.38;1.67;;;;;;;;;;5282687;28;20025;-81
2022/08/02 01:56:00;;;;;;;4.75;2.03;;;;;;;;;;5273587;28;20486;-80
2022/08/02 01:58:33;;;;;;;7.18;2.10;;;;;;;;;;5284263;28;20064;-81
2022/08/02 02:01:06;;;;;;;8.70;1.75;;;;;;;;;;5282151;28;20017;-80
2022/08/02 02:03:38;;;;;;;7.68;1.92;;;;;;;;;;5310840;28;20094;-81
2022/08/02 02:06:10;;;;;;;5.18;1.80;;;;;;;;;;5304680;28;20037;-81
2022/08/02 02:08:42;;;;;;;4.50;2.00;;;;;;;;;;5300410;28;20043;-81
2022/08/02 02:11:13;;;;;;;5.75;1.95;;;;;;;;;;5287737;28;20029;-81
2022/08/02 02:13:46;;;;;;;7.63;2.00;;;;;;;;;;5276584;28;20071;-80
2022/08/02 02:16:18;;;;;;;6.20;2.28;;;;;;;;;;5273328;28;20439;-81
2022/08/02 02:18:50;;;;;;;7.05;1.67;;;;;;;;;;5301361;28;20048;-81
2022/08/02 02:21:21;;;;;;;7.75;2.22;;;;;;;;;;5281736;28;20040;-80
2022/08/02 02:23:53;;;;;;;8.80;2.17;;;;;;;;;;5301306;28;20005;-82
2022/08/02 02:26:24;;;;;;;5.57;1.98;;;;;;;;;;5310843;28;20051;-81
2022/08/02 02:28:56;;;;;;;4.50;2.08;;;;;;;;;;5290097;28;20053;-80
2022/08/02 02:31:31;;;;;;;11.00;1.90;;;;;;;;;;5320148;28;20052;-81
2022/08/02 02:34:04;;;;;;;5.40;2.13;;;;;;;;;;5330712;28;20033;-80
2022/08/02 02:36:37;;;;;;;6.00;1.92;;;;;;;;;;5306446;28;20426;-81
2022/08/02 02:39:10;;;;;;;7.20;2.33;;;;;;;;;;5289221;28;20037;-81
2022/08/02 02:41:42;;;;;;;6.72;2.20;;;;;;;;;;5281210;28;20017;-82
2022/08/02 02:44:15;;;;;;;7.32;1.90;;;;;;;;;;5279405;28;20026;-81
2022/08/02 02:46:48;;;;;;;4.53;1.73;;;;;;;;;;5285460;28;20029;-81
2022/08/02 02:49:20;;;;;;;5.90;2.53;;;;;;;;;;5285282;28;20024;-81
2022/08/02 02:51:52;;;;;;;6.15;1.85;;;;;;;;;;5289790;28;20359;-81
2022/08/02 02:54:24;;;;;;;6.40;1.70;;;;;;;;;;5307111;28;20110;-81
2022/08/02 02:56:56;;;;;;;6.95;2.40;;;;;;;;;;5286850;28;20095;-81
2022/08/02 02:59:28;;;;;;;10.45;2.60;;;;;;;;;;5286018;28;20032;-81
2022/08/02 03:02:00;;;;;;;7.00;2.10;;;;;;;;;;5279864;28;20031;-82
2022/08/02 03:04:32;;;;;;;7.68;2.33;;;;;;;;;;5305739;28;20374;-82
2022/08/02 03:07:03;;;;;;;5.18;2.22;;;;;;;;;;5292759;28;20020;-81
2022/08/02 03:09:34;;;;;;;10.25;2.58;;;;;;;;;;5296296;28;20029;-82
2022/08/02 03:12:07;;;;;;;5.60;2.00;;;;;;;;;;5292940;28;20033;-82
2022/08/02 03:14:40;;;;;;;7.68;2.42;;;;;;;;;;5275876;28;20056;-82
2022/08/02 03:17:12;;;;;;;8.45;1.77;;;;;;;;;;5284371;28;20040;-82
2022/08/02 03:19:44;;;;;;;7.90;2.53;;;;;;;;;;5282844;28;20029;-81
2022/08/02 03:22:15;;;;;;;5.07;2.30;;;;;;;;;;5297462;28;20032;-82
2022/08/02 03:24:46;;;;;;;6.70;2.50;;;;;;;;;;5298959;28;20025;-82
2022/08/02 03:27:17;;;;;;;4.53;1.80;;;;;;;;;;5275039;28;20064;-82
2022/08/02 03:29:48;;;;;;;4.93;2.87;;;;;;;;;;5296233;28;20024;-81
2022/08/02 03:32:19;;;;;;;6.90;2.10;;;;;;;;;;5278553;28;20025;-83
2022/08/02 03:34:51;;;;;;;6.10;2.07;;;;;;;;;;5248539;28;20397;-83
2022/08/02 03:37:22;;;;;;;6.20;2.30;;;;;;;;;;5295627;28;20040;-82
2022/08/02 03:39:54;;;;;;;10.68;2.92;;;;;;;;;;5287282;28;20032;-83
2022/08/02 03:42:25;;;;;;;9.52;2.08;;;;;;;;;;5264058;28;20385;-82
2022/08/02 03:44:57;;;;;;;6.43;2.30;;;;;;;;;;5283197;28;20034;-82
2022/08/02 03:47:29;;;;;;;7.43;2.60;;;;;;;;;;5283322;28;20025;-82
2022/08/02 03:50:01;;;;;;;5.95;2.50;;;;;;;;;;5286724;28;20029;-82
2022/08/02 03:52:32;;;;;;;4.13;2.10;;;;;;;;;;5292591;28;20060;-82
2022/08/02 03:55:03;;;;;;;6.33;2.30;;;;;;;;;;5294240;28;20090;-82
2022/08/02 03:57:38;;;;;;;10.10;2.30;;;;;;;;;;5289094;28;20635;-81
2022/08/02 04:00:14;;;;;;;9.23;2.70;;;;;;;;;;5276936;28;20059;-80
2022/08/02 04:02:46;;;;;;;8.20;2.20;;;;;;;;;;5268015;28;20509;-81
2022/08/02 04:05:17;;;;;;;6.85;2.72;;;;;;;;;;5295358;28;20029;-81
2022/08/02 04:07:49;;;;;;;9.07;3.30;;;;;;;;;;5280909;28;20462;-82
2022/08/02 04:10:20;;;;;;;7.40;2.85;;;;;;;;;;5282130;28;20110;-81
2022/08/02 04:12:52;;;;;;;5.10;2.85;;;;;;;;;;5279101;28;20087;-81
2022/08/02 04:15:23;;;;;;;9.73;2.92;;;;;;;;;;5289652;28;20166;-81
2022/08/02 04:17:57;;;;;;;5.47;2.97;;;;;;;;;;5279491;28;20036;-81
2022/08/02 04:20:30;;;;;;;8.45;2.85;;;;;;;;;;5295469;28;20044;-81
2022/08/02 04:23:05;;;;;;;6.82;2.92;;;;;;;;;;5272055;28;20107;-81
2022/08/02 04:25:37;;;;;;;8.50;3.08;;;;;;;;;;5279139;28;20444;-81
2022/08/02 04:28:09;;;;;;;7.82;2.80;;;;;;;;;;5280031;28;20017;-81
2022/08/02 04:30:41;;;;;;;6.78;2.97;;;;;;;;;;5293463;28;20127;-81
2022/08/02 04:33:12;;;;;;;7.85;3.00;;;;;;;;;;5285978;28;20028;-81
2022/08/02 04:35:44;;;;;;;6.32;2.53;;;;;;;;;;5289316;28;20032;-82
2022/08/02 04:38:15;;;;;;;6.13;3.45;;;;;;;;;;5285963;28;32123;-81
2022/08/02 04:40:55;;;;;;;5.80;3.10;;;;;;;;;;5292275;28;20025;-81
2022/08/02 04:43:26;;;;;;;6.82;3.28;;;;;;;;;;5271423;28;20255;-80
2022/08/02 04:46:02;;;;;;;8.25;3.72;;;;;;;;;;5275098;28;20025;-80
2022/08/02 04:48:33;;;;;;;10.57;4.20;;;;;;;;;;5273947;28;20029;-80
2022/08/02 04:51:04;;;;;;;7.78;3.63;;;;;;;;;;5288159;28;20033;-81
2022/08/02 04:53:35;;;;;;;7.53;3.30;;;;;;;;;;5289740;28;20029;-81
2022/08/02 04:56:07;;;;;;;9.55;3.75;;;;;;;;;;5265711;28;20582;-81
2022/08/02 04:58:38;;;;;;;13.25;4.40;;;;;;;;;;5263308;28;20032;-81
2022/08/02 05:01:09;;;;;;;7.73;4.17;;;;;;;;;;5275671;28;20102;-81
2022/08/02 05:03:40;;;;;;;9.98;4.70;;;;;;;;;;5288455;28;20280;-82
2022/08/02 05:06:11;;;;;;;7.03;4.15;;;;;;;;;;5279056;28;20052;-81
2022/08/02 05:08:43;;;;;;;13.00;4.73;;;;;;;;;;5276347;28;20033;-81
2022/08/02 05:11:14;;;;;;;7.50;4.45;;;;;;;;;;5286018;28;20350;-81
2022/08/02 05:13:45;;;;;;;13.25;4.90;;;;;;;;;;5271579;28;20032;-81
2022/08/02 05:16:16;;;;;;;11.57;5.70;;;;;;;;;;5291528;28;20041;-81
2022/08/02 05:18:49;;;;;;;11.23;5.18;;;;;;;;;;5266001;28;20291;-81
2022/08/02 05:21:21;;;;;;;6.43;5.10;;;;;;;;;;5275754;28;20111;-81
2022/08/02 05:23:52;;;;;;;13.85;5.45;;;;;;;;;;5283062;28;20062;-80
2022/08/02 05:26:23;;;;;;;8.63;4.85;;;;;;;;;;5264925;28;20056;-81
2022/08/02 05:28:54;;;;;;;13.27;5.80;;;;;;;;;;5263055;28;20013;-82
2022/08/02 05:31:26;;;;;;;15.13;6.63;;;;;;;;;;5268664;28;20393;-82
2022/08/02 05:33:57;;;;;;;6.90;4.95;;;;;;;;;;5266299;28;20029;-82
2022/08/02 05:36:28;;;;;;;10.68;6.35;;;;;;;;;;5271283;28;20040;-81
2022/08/02 05:38:59;;;;;;;11.33;5.47;;;;;;;;;;5266030;28;20089;-81
2022/08/02 05:41:31;;;;;;;12.15;5.95;;;;;;;;;;5255482;28;20358;-81
2022/08/02 05:44:03;;;;;;;10.18;5.22;;;;;;;;;;5257786;28;21890;-81
2022/08/02 05:46:34;;;;;;;12.48;5.60;;;;;;;;;;5270101;28;20420;-81
2022/08/02 05:49:05;;;;;;;15.00;5.60;;;;;;;;;;5287407;28;20097;-81
2022/08/02 05:51:38;;;;;;;10.77;5.77;;;;;;;;;;5299766;28;20025;-81
2022/08/02 05:54:16;;;;;;;9.25;5.60;;;;;;;;;;5287010;28;20309;-82
2022/08/02 05:57:08;;;;;;;7.85;5.18;;;;;;;;;;5285858;28;20029;-81
2022/08/02 05:59:44;;;;;;;7.85;4.88;;;;;;;;;;5283071;28;20152;-81
2022/08/02 06:02:29;;;;;;;8.90;5.38;;;;;;;;;;5263394;28;20033;-81
2022/08/02 06:05:10;;;;;;;11.63;5.80;;;;;;;;;;5284287;28;20139;-81
2022/08/02 06:07:42;;;;;;;8.48;6.15;;;;;;;;;;5248958;28;20024;-82
2022/08/02 06:10:14;;;;;;;6.85;4.90;;;;;;;;;;5266778;28;20047;-81
2022/08/02 06:12:55;;;;;;;11.52;5.47;;;;;;;;;;5282786;28;20029;-81
2022/08/02 06:15:26;;;;;;;8.38;6.13;;;;;;;;;;5282259;28;20037;-81
2022/08/02 06:17:58;;;;;;;10.25;5.47;;;;;;;;;;5247937;28;20075;-81
2022/08/02 06:20:36;;;;;;;9.38;5.85;;;;;;;;;;5244902;28;20029;-81
2022/08/02 06:23:07;;;;;;;14.57;6.50;;;;;;;;;;5267012;28;20025;-81
2022/08/02 06:25:39;;;;;;;10.77;5.57;;;;;;;;;;5286261;28;20041;-81
2022/08/02 06:28:12;;;;;;;12.73;5.82;;;;;;;;;;5280911;28;20329;-81
2022/08/02 06:30:43;;;;;;;10.23;5.53;;;;;;;;;;5280612;28;20017;-81
2022/08/02 06:33:15;;;;;;;11.00;6.30;;;;;;;;;;5263598;28;20087;-81
2022/08/02 06:35:49;;;;;;;10.20;6.18;;;;;;;;;;5255095;28;20029;-81
2022/08/02 06:38:24;;;;;;;10.90;5.78;;;;;;;;;;5259702;28;20029;-82
2022/08/02 06:40:55;;;;;;;10.45;5.82;;;;;;;;;;5243467;28;20021;-81
2022/08/02 06:43:34;;;;;;;9.30;5.78;;;;;;;;;;5265055;28;20052;-81
2022/08/02 06:46:06;;;;;;;10.43;6.20;;;;;;;;;;5254915;28;20481;-82
2022/08/02 06:48:37;;;;;;;11.45;7.22;;;;;;;;;;5243735;28;20038;-82
2022/08/02 06:51:08;;;;;;;12.13;6.05;;;;;;;;;;5261759;28;20080;-82
2022/08/02 06:53:39;;;;;;;11.13;7.13;;;;;;;;;;5259949;28;20025;-82
2022/08/02 06:56:11;;;;;;;14.70;7.37;;;;;;;;;;5259717;28;20086;-82
2022/08/02 06:58:42;;;;;;;13.48;7.80;;;;;;;;;;5279316;28;20033;-82
2022/08/02 07:01:13;;;;;;;13.87;8.07;;;;;;;;;;5282646;28;20472;-82
2022/08/02 07:03:45;;;;;;;13.35;8.35;;;;;;;;;;5264134;28;20456;-82
2022/08/02 07:06:16;;;;;;;12.93;8.13;;;;;;;;;;5272581;28;20099;-82
2022/08/02 07:08:48;;;;;;;9.83;7.20;;;;;;;;;;5261662;28;20753;-82
2022/08/02 07:11:19;;;;;;;13.65;7.90;;;;;;;;;;5261162;28;20097;-82
2022/08/02 07:13:50;;;;;;;11.77;7.10;;;;;;;;;;5261051;28;20528;-82
2022/08/02 07:16:21;;;;;;;9.87;7.03;;;;;;;;;;5243641;28;20041;-82
2022/08/02 07:18:52;;;;;;;12.50;7.40;;;;;;;;;;5274667;28;20283;-82
2022/08/02 07:21:24;;;;;;;9.77;6.63;;;;;;;;;;5267322;28;20294;-81
2022/08/02 07:23:55;;;;;;;8.82;6.72;;;;;;;;;;5286221;28;20013;-82
2022/08/02 07:26:26;;;;;;;8.53;5.83;;;;;;;;;;5286658;28;20112;-82
2022/08/02 07:28:58;;;;;;;6.53;5.50;;;;;;;;;;5285137;28;20492;-82
2022/08/02 07:31:29;;;;;;;9.57;5.50;;;;;;;;;;5287041;28;20033;-82
2022/08/02 07:34:00;;;;;;;8.40;5.70;;;;;;;;;;5295844;28;20037;-81
2022/08/02 07:36:31;;;;;;;5.60;4.87;;;;;;;;;;5302936;28;20036;-81
2022/08/02 07:39:03;;;;;;;14.20;5.40;;;;;;;;;;5302371;28;20072;-81
2022/08/02 07:41:34;;;;;;;8.00;5.13;;;;;;;;;;5301942;28;20282;-81
2022/08/02 07:44:06;;;;;;;7.70;5.40;;;;;;;;;;5291001;28;20040;-82
2022/08/02 07:46:37;;;;;;;6.97;5.03;;;;;;;;;;5288469;28;20040;-83
2022/08/02 07:49:08;;;;;;;5.78;4.28;;;;;;;;;;5267857;28;20043;-82
2022/08/02 07:51:39;;;;;;;6.20;4.43;;;;;;;;;;5286599;28;20060;-82
2022/08/02 07:54:11;;;;;;;5.33;3.87;;;;;;;;;;5267135;28;20063;-82
2022/08/02 07:56:42;;;;;;;7.67;4.17;;;;;;;;;;5267025;28;20697;-82
2022/08/02 07:59:13;;;;;;;3.97;3.50;;;;;;;;;;5267254;28;20290;-81
2022/08/02 08:01:44;;;;;;;3.83;3.22;;;;;;;;;;5267134;28;20128;-82
2022/08/02 08:04:16;;;;;;;6.63;3.55;;;;;;;;;;5265959;28;20036;-82
2022/08/02 08:06:50;;;;;;;4.75;3.33;;;;;;;;;;5267060;28;20052;-82
2022/08/02 08:09:22;;;;;;;4.13;3.42;;;;;;;;;;5285038;28;20039;-81
2022/08/02 08:11:53;;;;;;;7.03;2.93;;;;;;;;;;5266703;28;20013;-81
2022/08/02 08:14:24;;;;;;;5.63;2.30;;;;;;;;;;5266515;28;20434;-81
2022/08/02 08:16:55;;;;;;;5.87;2.70;;;;;;;;;;5285109;28;20244;-81
2022/08/02 08:19:26;;;;;;;5.77;3.23;;;;;;;;;;5284776;28;20029;-81
2022/08/02 08:22:02;;;;;;;6.73;2.20;;;;;;;;;;5266225;28;20021;-81
2022/08/02 08:24:33;;;;;;;3.15;1.90;;;;;;;;;;5283343;28;20279;-81
2022/08/02 08:27:04;;;;;;;3.60;2.10;;;;;;;;;;5281794;28;20041;-81
2022/08/02 08:29:35;;;;;;;3.88;2.35;;;;;;;;;;5283759;28;20098;-81
2022/08/02 08:32:07;;;;;;;5.87;2.57;;;;;;;;;;5265833;28;20115;-81
2022/08/02 08:34:38;;;;;;;3.55;2.28;;;;;;;;;;5284237;28;20298;-81
2022/08/02 08:37:09;;;;;;;5.90;2.20;;;;;;;;;;5284053;28;20021;-81
2022/08/02 08:39:40;;;;;;;7.47;2.50;;;;;;;;;;5265335;28;20425;-81
2022/08/02 08:42:12;;;;;;;7.73;1.97;;;;;;;;;;5284001;28;20278;-81
2022/08/02 08:44:43;;;;;;;7.17;1.90;;;;;;;;;;5283836;28;20322;-81
2022/08/02 08:47:15;;;;;;;9.90;2.30;;;;;;;;;;5283854;28;20033;-81
2022/08/02 08:49:48;;;;;;;4.97;1.88;;;;;;;;;;5284396;28;20075;-80
2022/08/02 08:52:21;;;;;;;4.13;1.58;;;;;;;;;;5284016;28;20021;-81
2022/08/02 08:54:53;;;;;;;15.45;2.55;;;;;;;;;;5284519;28;20031;-80
2022/08/02 08:57:24;;;;;;;10.98;1.90;;;;;;;;;;5284254;28;20456;-81
2022/08/02 08:59:55;;;;;;;3.30;1.60;;;;;;;;;;5283307;28;20069;-81
2022/08/02 09:02:27;;;;;;;6.83;1.90;;;;;;;;;;5284024;28;20711;-81
2022/08/02 09:04:59;;;;;;;5.05;1.48;;;;;;;;;;5284570;28;20612;-81
2022/08/02 09:07:30;;;;;;;4.05;1.60;;;;;;;;;;5283442;28;20043;-81
2022/08/02 09:10:21;;;;;;;2.57;1.40;;;;;;;;;;5266097;28;20025;-80
2022/08/02 09:13:13;;;;;;;3.08;1.45;;;;;;;;;;5283404;28;20481;-81
2022/08/02 09:15:44;;;;;;;4.88;1.30;;;;;;;;;;5283161;28;20048;-81
2022/08/02 09:18:15;;;;;;;6.13;1.52;;;;;;;;;;5283217;28;20351;-81
2022/08/02 09:20:52;;;;;;;3.30;1.37;;;;;;;;;;5283227;28;20037;-81
2022/08/02 09:23:23;;;;;;;2.88;1.40;;;;;;;;;;5283315;28;20588;-81
2022/08/02 09:26:00;;;;;;;24.52;3.28;;;;;;;;;;5283636;28;20049;-81
2022/08/02 09:28:33;;;;;;;3.10;1.30;;;;;;;;;;5283382;28;20474;-81
2022/08/02 09:31:09;;;;;;;3.47;1.20;;;;;;;;;;5283827;28;20049;-81
2022/08/02 09:33:41;;;;;;;4.55;1.30;;;;;;;;;;5283489;28;20021;-81
2022/08/02 09:36:12;;;;;;;3.65;1.20;;;;;;;;;;5283524;28;20052;-81
2022/08/02 09:38:57;;;;;;;8.82;1.83;;;;;;;;;;5282131;28;20021;-81
2022/08/02 09:41:36;;;;;;;19.07;2.30;;;;;;;;;;5263465;28;20033;-81
2022/08/02 09:44:09;;;;;;;8.15;1.52;;;;;;;;;;5283157;28;20477;-81
2022/08/02 09:46:41;;;;;;;3.85;1.60;;;;;;;;;;5283295;28;20207;-81
2022/08/02 09:49:16;;;;;;;3.80;1.38;;;;;;;;;;5282358;28;20028;-81
2022/08/02 09:51:48;;;;;;;4.90;1.00;;;;;;;;;;5282931;28;20385;-81
2022/08/02 09:54:22;;;;;;;2.08;0.98;;;;;;;;;;5263920;28;20033;-81
2022/08/02 09:56:55;;;;;;;2.80;0.80;;;;;;;;;;5260139;28;20075;-81
2022/08/02 09:59:27;;;;;;;2.65;1.20;;;;;;;;;;5262014;28;20072;-81
2022/08/02 10:01:59;;;;;;;1.73;0.88;;;;;;;;;;5268537;28;20127;-81
2022/08/02 10:04:31;;;;;;;2.78;1.05;;;;;;;;;;5283013;28;20052;-81
2022/08/02 10:07:03;;;;;;;2.75;0.80;;;;;;;;;;5265021;28;20110;-81
2022/08/02 10:09:34;;;;;;;2.65;1.00;;;;;;;;;;5282480;28;20440;-81
2022/08/02 10:12:05;;;;;;;2.83;0.90;;;;;;;;;;5282497;28;20009;-80
2022/08/02 10:14:37;;;;;;;5.40;1.02;;;;;;;;;;5281845;28;20358;-81
2022/08/02 10:17:08;;;;;;;3.95;1.20;;;;;;;;;;5283138;28;20028;-81
2022/08/02 10:19:39;;;;;;;4.33;1.00;;;;;;;;;;5287978;28;20025;-80
2022/08/02 10:22:11;;;;;;;10.73;1.80;;;;;;;;;;5290649;28;20032;-80
2022/08/02 10:24:43;;;;;;;5.97;1.30;;;;;;;;;;5287356;28;20036;-80
2022/08/02 10:27:18;;;;;;;3.08;1.45;;;;;;;;;;5285328;28;20049;-81
2022/08/02 10:29:50;;;;;;;2.90;0.70;;;;;;;;;;5265258;28;20029;-80
2022/08/02 10:32:28;;;;;;;7.90;1.20;;;;;;;;;;5283619;28;20486;-81
2022/08/02 10:35:02;;;;;;;12.65;1.80;;;;;;;;;;5268210;28;20108;-80
2022/08/02 10:37:36;;;;;;;5.47;1.00;;;;;;;;;;5261687;28;20044;-80
2022/08/02 10:40:21;;;;;;;1.23;0.82;;;;;;;;;;5271020;28;20025;-81
2022/08/02 10:43:00;;;;;;;4.90;1.08;;;;;;;;;;5253321;28;20025;-80
2022/08/02 10:45:31;;;;;;;3.70;0.90;;;;;;;;;;5274999;28;20365;-81
2022/08/02 10:48:10;;;;;;;5.27;0.90;;;;;;;;;;5264293;28;20120;-81
2022/08/02 10:50:44;;;;;;;1.40;0.75;;;;;;;;;;5283820;28;20294;-80
2022/08/02 10:53:25;;;;;;;4.00;0.80;;;;;;;;;;5282205;28;20025;-81
2022/08/02 10:55:58;;;;;;;1.83;0.70;;;;;;;;;;5285711;28;20068;-81
2022/08/02 10:58:33;;;;;;;6.20;0.70;;;;;;;;;;5286160;28;20370;-81
2022/08/02 11:01:24;;;;;;;1.10;0.52;;;;;;;;;;5284962;28;20428;-81
2022/08/02 11:03:56;;;;;;;3.00;0.70;;;;;;;;;;5267199;28;20032;-81
2022/08/02 11:06:27;;;;;;;2.35;0.75;;;;;;;;;;5263384;28;20040;-81
2022/08/02 11:09:17;;;;;;;3.70;1.00;;;;;;;;;;5265766;28;20077;-81
2022/08/02 11:12:05;;;;;;;2.10;0.82;;;;;;;;;;5264499;28;20486;-81
2022/08/02 11:14:38;;;;;;;0.55;0.52;;;;;;;;;;5246631;28;20096;-81
2022/08/02 11:17:11;;;;;;;3.08;0.85;;;;;;;;;;5264001;28;20430;-82
2022/08/02 11:20:00;;;;;;;4.47;0.77;;;;;;;;;;5285479;28;20047;-81
2022/08/02 11:22:31;;;;;;;1.00;0.55;;;;;;;;;;5285490;28;20032;-81
2022/08/02 11:25:21;;;;;;;2.47;0.67;;;;;;;;;;5282705;28;20025;-81
2022/08/02 11:28:13;;;;;;;1.40;0.50;;;;;;;;;;5277137;28;20043;-81
2022/08/02 11:30:44;;;;;;;1.67;0.70;;;;;;;;;;5276669;28;20037;-81
2022/08/02 11:33:15;;;;;;;0.97;0.60;;;;;;;;;;5285373;28;20557;-81
2022/08/02 11:35:47;;;;;;;1.05;0.60;;;;;;;;;;5285515;28;20104;-81
2022/08/02 11:38:19;;;;;;;3.25;0.80;;;;;;;;;;5301519;28;20385;-81
2022/08/02 11:40:50;;;;;;;2.50;0.70;;;;;;;;;;5271989;28;20021;-81
2022/08/02 11:43:23;;;;;;;2.77;0.70;;;;;;;;;;5288513;28;20040;-81
2022/08/02 11:45:55;;;;;;;3.15;0.70;;;;;;;;;;5286129;28;20082;-81
2022/08/02 11:48:30;;;;;;;4.38;0.85;;;;;;;;;;5266581;28;20021;-81
2022/08/02 11:51:01;;;;;;;;;;;;;;;;;;5286064;28;20035;-81
2022/08/02 11:53:43;;;;;;;2.63;0.93;;;;;;;;;;5285503;28;19912;-81
2022/08/02 11:56:14;;;;;;;1.98;0.50;;;;;;;;;;5284283;28;20040;-81
2022/08/02 11:59:03;;;;;;;1.45;0.70;;;;;;;;;;5285362;28;20017;-81
2022/08/02 12:01:36;;;;;;;1.85;0.50;;;;;;;;;;5284669;28;20457;-81
2022/08/02 12:04:07;;;;;;;2.47;0.70;;;;;;;;;;5266126;28;20052;-81
2022/08/02 12:06:38;;;;;;;1.50;0.60;;;;;;;;;;5285166;28;20029;-81
2022/08/02 12:09:12;;;;;;;3.60;0.77;;;;;;;;;;5285027;28;20021;-81
2022/08/02 12:11:46;;;;;;;4.03;0.90;;;;;;;;;;5285314;28;20271;-81
2022/08/02 12:14:18;;;;;;;1.17;0.70;;;;;;;;;;5284754;28;20033;-81
2022/08/02 12:19:41;;;;;;;1.58;0.60;;;;;;;;;;5284577;28;20100;-81
2022/08/02 12:22:12;;;;;;;2.53;0.55;;;;;;;;;;5283830;28;20108;-81
2022/08/02 12:24:47;;;;;;;1.47;0.70;;;;;;;;;;5284615;28;20029;-81
2022/08/02 12:27:33;;;;;;;1.73;0.52;;;;;;;;;;5283205;28;20057;-81
2022/08/02 12:30:06;;;;;;;6.88;1.48;;;;;;;;;;5284758;28;20095;-81
2022/08/02 12:32:38;;;;;;;1.55;0.73;;;;;;;;;;5284918;28;20382;-81
2022/08/02 12:35:11;;;;;;;2.00;0.65;;;;;;;;;;5273902;28;20033;-81
2022/08/02 12:37:43;;;;;;;4.03;0.60;;;;;;;;;;5283712;28;20032;-81
2022/08/02 12:40:24;;;;;;;3.58;0.52;;;;;;;;;;5277184;28;20087;-81
2022/08/02 12:42:57;;;;;;;3.08;0.77;;;;;;;;;;5274600;28;20036;-81
2022/08/02 12:45:29;;;;;;;2.10;0.60;;;;;;;;;;5269610;28;20029;-81
2022/08/02 12:48:00;;;;;;;2.00;0.70;;;;;;;;;;5278196;28;20021;-81
2022/08/02 12:50:33;;;;;;;1.07;0.70;;;;;;;;;;5275637;28;20485;-81
2022/08/02 12:53:06;;;;;;;6.25;1.10;;;;;;;;;;5279987;28;20029;-81
2022/08/02 12:55:48;;;;;;;0.82;0.55;;;;;;;;;;5281448;28;20462;-81
2022/08/02 12:58:19;;;;;;;1.85;0.80;;;;;;;;;;5273511;28;20051;-81
2022/08/02 13:00:54;;;;;;;1.27;0.67;;;;;;;;;;5284142;28;20485;-81
2022/08/02 13:03:26;;;;;;;4.30;0.82;;;;;;;;;;5280654;28;20385;-81
2022/08/02 13:05:57;;;;;;;1.23;0.70;;;;;;;;;;5280702;28;20029;-80
2022/08/02 13:08:28;;;;;;;2.93;0.53;;;;;;;;;;5274551;28;20026;-80
2022/08/02 13:10:59;;;;;;;2.80;0.77;;;;;;;;;;5289033;28;20119;-81
2022/08/02 13:13:31;;;;;;;2.73;0.53;;;;;;;;;;5275545;28;20054;-81
2022/08/02 13:16:02;;;;;;;2.03;0.80;;;;;;;;;;5296894;28;20028;-81
2022/08/02 13:18:33;;;;;;;1.77;0.73;;;;;;;;;;5295769;28;20612;-81
2022/08/02 13:21:05;;;;;;;1.88;0.70;;;;;;;;;;5287897;28;20768;-81
2022/08/02 13:23:37;;;;;;;2.55;0.65;;;;;;;;;;5281988;28;20032;-81
2022/08/02 13:26:08;;;;;;;1.95;0.68;;;;;;;;;;5283637;28;20520;-82
2022/08/02 13:28:41;;;;;;;3.70;0.73;;;;;;;;;;5283772;28;20028;-81
2022/08/02 13:31:12;;;;;;;2.08;0.52;;;;;;;;;;5283120;28;20075;-81
2022/08/02 13:33:43;;;;;;;7.23;0.90;;;;;;;;;;5283380;28;20512;-81
2022/08/02 13:36:15;;;;;;;2.73;0.70;;;;;;;;;;5283133;28;20029;-81
2022/08/02 13:38:46;;;;;;;1.57;0.70;;;;;;;;;;5282774;28;20074;-81
2022/08/02 13:41:17;;;;;;;1.47;0.70;;;;;;;;;;5264978;28;20482;-81
2022/08/02 13:43:48;;;;;;;3.15;0.73;;;;;;;;;;5283735;28;20463;-81
2022/08/02 13:46:19;;;;;;;1.00;0.70;;;;;;;;;;5283479;28;20452;-81
2022/08/02 13:48:51;;;;;;;1.77;0.70;;;;;;;;;;5283413;28;20159;-81
2022/08/02 13:51:22;;;;;;;3.63;0.73;;;;;;;;;;5282897;28;20131;-81
2022/08/02 13:53:53;;;;;;;2.83;0.70;;;;;;;;;;5265004;28;20045;-81
2022/08/02 13:56:26;;;;;;;2.07;0.80;;;;;;;;;;5266371;28;20034;-81
2022/08/02 13:58:58;;;;;;;1.75;0.80;;;;;;;;;;5268943;28;20408;-81
2022/08/02 14:01:29;;;;;;;4.07;0.57;;;;;;;;;;5281715;28;20025;-81
2022/08/02 14:04:00;;;;;;;1.70;0.73;;;;;;;;;;5282791;28;20087;-81
2022/08/02 14:06:32;;;;;;;4.37;0.70;;;;;;;;;;5264706;28;20047;-81
2022/08/02 14:09:03;;;;;;;2.40;0.68;;;;;;;;;;5282940;28;20102;-81
2022/08/02 14:11:34;;;;;;;4.80;0.93;;;;;;;;;;5282853;28;20450;-81
2022/08/02 14:14:05;;;;;;;3.13;0.77;;;;;;;;;;5264477;28;20021;-81
2022/08/02 14:16:37;;;;;;;2.93;1.07;;;;;;;;;;5283090;28;20114;-81
2022/08/02 14:19:08;;;;;;;1.17;0.70;;;;;;;;;;5282006;28;20462;-81
2022/08/02 14:21:39;;;;;;;5.10;1.00;;;;;;;;;;5273708;28;20033;-81
2022/08/02 14:24:10;;;;;;;2.23;0.70;;;;;;;;;;5283244;28;20071;-81
2022/08/02 14:26:42;;;;;;;2.33;0.70;;;;;;;;;;5264743;28;20517;-81
2022/08/02 14:29:14;;;;;;;2.90;0.80;;;;;;;;;;5269126;28;20025;-80
2022/08/02 14:31:45;;;;;;;4.65;0.90;;;;;;;;;;5301695;28;20017;-80
2022/08/02 14:34:16;;;;;;;2.57;0.80;;;;;;;;;;5291554;28;20029;-81
2022/08/02 14:36:47;;;;;;;4.10;0.90;;;;;;;;;;5276892;28;20028;-81
2022/08/02 14:39:19;;;;;;;3.40;1.00;;;;;;;;;;5287631;28;20017;-81
2022/08/02 14:41:50;;;;;;;3.77;1.03;;;;;;;;;;5270720;28;20037;-81
2022/08/02 14:44:21;;;;;;;4.00;0.90;;;;;;;;;;5265096;28;20045;-81
2022/08/02 14:46:52;;;;;;;1.57;0.80;;;;;;;;;;5265305;28;20363;-81
2022/08/02 14:49:23;;;;;;;4.70;1.03;;;;;;;;;;5247383;28;20024;-81
2022/08/02 14:51:55;;;;;;;3.43;0.93;;;;;;;;;;5265311;28;20029;-81
2022/08/02 14:54:30;;;;;;;4.38;1.05;;;;;;;;;;5265655;28;20037;-80
2022/08/02 14:57:02;;;;;;;4.15;1.00;;;;;;;;;;5285486;28;20025;-81
2022/08/02 14:59:33;;;;;;;2.53;0.90;;;;;;;;;;5268483;28;20033;-81
2022/08/02 15:02:04;;;;;;;2.87;1.10;;;;;;;;;;5286254;28;20520;-81
2022/08/02 15:04:35;;;;;;;4.50;0.93;;;;;;;;;;5267606;28;20028;-81
2022/08/02 15:07:07;;;;;;;7.13;0.90;;;;;;;;;;5286356;28;20017;-81
2022/08/02 15:09:38;;;;;;;2.07;0.70;;;;;;;;;;5267890;28;20095;-81
2022/08/02 15:12:10;;;;;;;5.50;1.07;;;;;;;;;;5285667;28;20099;-81
2022/08/02 15:14:41;;;;;;;5.28;1.20;;;;;;;;;;5285209;28;20343;-81
2022/08/02 15:17:12;;;;;;;3.40;1.00;;;;;;;;;;5266971;28;20452;-80